THY2TK LTFM-EVRA
Flight info
| Callsign | THY2TK |
|---|---|
| Flight time | N/A |
| Altitude | 34000 |
| Route | IBLAX P727 BGS DCT GONGO DCT KOMAN DCT KARIL/N0466F360 DCT KENIN DCT ROBTU/N0466F350 DCT KEFIR DCT ETUBO DCT VABER/N0462F360 DCT GUNTA |
| Aircraft | B738/M-SDE2E3FGHIRWXY/LB1 |
Departure
| Time | 2026-04-30 21:35 |
|---|---|
| Airport | İstanbul Airport (LTFM) |
Arrival
| Time | N/A |
|---|---|
| Airport | Riga International Airport (EVRA) |
| Time | Latitude | Longitude | Altitude | Speed | Heading |
|---|---|---|---|---|---|
| 2026-04-30 20:56 | 41.25976 | 28.73562 | 333 ft | 0 kts | 107° |
| 2026-04-30 21:28 | 41.25979 | 28.73550 | 331 ft | 4 kts | 106° |
| 2026-04-30 21:29 | 41.25985 | 28.73515 | 330 ft | 4 kts | 99° |
| 2026-04-30 21:29 | 41.25973 | 28.73441 | 328 ft | 1 kts | 17° |
| 2026-04-30 21:31 | 41.25981 | 28.73444 | 329 ft | 3 kts | 17° |
| 2026-04-30 21:32 | 41.26070 | 28.73481 | 332 ft | 10 kts | 17° |
| 2026-04-30 21:32 | 41.26149 | 28.73512 | 332 ft | 13 kts | 13° |
| 2026-04-30 21:32 | 41.26219 | 28.73449 | 333 ft | 15 kts | 277° |
| 2026-04-30 21:32 | 41.26220 | 28.73289 | 331 ft | 19 kts | 269° |
| 2026-04-30 21:33 | 41.26217 | 28.73093 | 332 ft | 23 kts | 268° |
| 2026-04-30 21:33 | 41.26210 | 28.72609 | 333 ft | 25 kts | 269° |
| 2026-04-30 21:33 | 41.26267 | 28.72523 | 332 ft | 13 kts | 357° |
| 2026-04-30 21:34 | 41.26278 | 28.72523 | 330 ft | 0 kts | 0° |
| 2026-04-30 21:34 | 41.26597 | 28.72517 | 332 ft | 81 kts | 359° |
| 2026-04-30 21:34 | 41.27373 | 28.72498 | 330 ft | 140 kts | 359° |
| 2026-04-30 21:35 | 41.28503 | 28.72395 | 601 ft | 170 kts | 355° |
| 2026-04-30 21:35 | 41.29649 | 28.72241 | 1435 ft | 170 kts | 2° |
| 2026-04-30 21:35 | 41.30845 | 28.72220 | 2245 ft | 169 kts | 5° |
| 2026-04-30 21:35 | 41.31996 | 28.72209 | 3199 ft | 169 kts | 2° |
| 2026-04-30 21:36 | 41.33286 | 28.72221 | 3440 ft | 200 kts | 5° |
| 2026-04-30 21:36 | 41.34768 | 28.72187 | 3631 ft | 229 kts | 348° |
| 2026-04-30 21:37 | 41.39444 | 28.69023 | 5748 ft | 257 kts | 334° |
| 2026-04-30 21:37 | 41.41050 | 28.67903 | 6537 ft | 263 kts | 333° |
| 2026-04-30 21:37 | 41.42697 | 28.66763 | 7261 ft | 269 kts | 331° |
| 2026-04-30 21:37 | 41.44378 | 28.65604 | 7993 ft | 275 kts | 329° |
| 2026-04-30 21:38 | 41.46097 | 28.64425 | 8759 ft | 280 kts | 328° |
| 2026-04-30 21:38 | 41.47847 | 28.63225 | 9510 ft | 285 kts | 328° |
| 2026-04-30 21:38 | 41.49628 | 28.62006 | 10240 ft | 291 kts | 327° |
| 2026-04-30 21:38 | 41.51490 | 28.60727 | 10510 ft | 313 kts | 327° |
| 2026-04-30 21:39 | 41.53496 | 28.59347 | 10705 ft | 336 kts | 328° |
| 2026-04-30 21:39 | 41.55646 | 28.57871 | 10886 ft | 361 kts | 328° |
| 2026-04-30 21:39 | 41.57956 | 28.56291 | 11232 ft | 382 kts | 328° |
| 2026-04-30 21:39 | 41.60346 | 28.54663 | 11965 ft | 389 kts | 328° |
| 2026-04-30 21:40 | 41.62767 | 28.53018 | 12796 ft | 393 kts | 328° |
| 2026-04-30 21:40 | 41.65213 | 28.51354 | 13621 ft | 396 kts | 328° |
| 2026-04-30 21:40 | 41.67688 | 28.49664 | 14318 ft | 401 kts | 328° |
| 2026-04-30 21:40 | 41.70153 | 28.47979 | 15000 ft | 405 kts | 328° |
| 2026-04-30 21:41 | 41.72676 | 28.46250 | 15769 ft | 409 kts | 328° |
| 2026-04-30 21:41 | 41.75217 | 28.44508 | 16550 ft | 412 kts | 327° |
| 2026-04-30 21:41 | 41.77779 | 28.42749 | 17267 ft | 415 kts | 327° |
| 2026-04-30 21:41 | 41.80356 | 28.40978 | 17810 ft | 418 kts | 327° |
| 2026-04-30 21:42 | 41.82964 | 28.39182 | 18250 ft | 423 kts | 327° |
| 2026-04-30 21:42 | 41.85595 | 28.37371 | 18695 ft | 427 kts | 327° |
| 2026-04-30 21:42 | 41.88240 | 28.35549 | 19175 ft | 428 kts | 327° |
| 2026-04-30 21:42 | 41.90900 | 28.33715 | 19626 ft | 431 kts | 327° |
| 2026-04-30 21:43 | 41.93572 | 28.31870 | 20070 ft | 433 kts | 327° |
| 2026-04-30 21:43 | 41.95369 | 28.30576 | 20348 ft | 433 kts | 323° |
| 2026-04-30 21:43 | 41.98511 | 28.27356 | 20915 ft | 427 kts | 311° |
| 2026-04-30 21:43 | 42.00493 | 28.24448 | 21322 ft | 423 kts | 301° |
| 2026-04-30 21:44 | 42.02173 | 28.21179 | 21753 ft | 422 kts | 298° |
| 2026-04-30 21:44 | 42.03797 | 28.17883 | 22170 ft | 424 kts | 298° |
| 2026-04-30 21:44 | 42.05429 | 28.14565 | 22586 ft | 426 kts | 298° |
| 2026-04-30 21:44 | 42.07075 | 28.11241 | 22976 ft | 428 kts | 298° |
| 2026-04-30 21:45 | 42.08737 | 28.07907 | 23359 ft | 430 kts | 298° |
| 2026-04-30 21:45 | 42.10417 | 28.04553 | 23722 ft | 433 kts | 298° |
| 2026-04-30 21:45 | 42.12105 | 28.01189 | 24064 ft | 434 kts | 298° |
| 2026-04-30 21:45 | 42.13798 | 27.97817 | 24423 ft | 435 kts | 298° |
| 2026-04-30 21:46 | 42.15489 | 27.94443 | 24774 ft | 435 kts | 298° |
| 2026-04-30 21:46 | 42.17182 | 27.91061 | 25109 ft | 436 kts | 298° |
| 2026-04-30 21:46 | 42.18878 | 27.87667 | 25435 ft | 437 kts | 297° |
| 2026-04-30 21:46 | 42.20628 | 27.84304 | 25753 ft | 441 kts | 302° |
| 2026-04-30 21:47 | 42.22741 | 27.81248 | 26060 ft | 450 kts | 310° |
| 2026-04-30 21:47 | 42.25163 | 27.78524 | 26368 ft | 458 kts | 316° |
| 2026-04-30 21:47 | 42.27908 | 27.76250 | 26698 ft | 466 kts | 323° |
| 2026-04-30 21:47 | 42.30760 | 27.74194 | 27146 ft | 464 kts | 324° |
| 2026-04-30 21:48 | 42.33613 | 27.72172 | 27628 ft | 461 kts | 324° |
| 2026-04-30 21:48 | 42.36436 | 27.70161 | 28123 ft | 457 kts | 323° |
| 2026-04-30 21:48 | 42.39236 | 27.68142 | 28575 ft | 455 kts | 323° |
| 2026-04-30 21:48 | 42.41980 | 27.66140 | 29007 ft | 453 kts | 322° |
| 2026-04-30 21:49 | 42.44742 | 27.64110 | 29476 ft | 450 kts | 322° |
| 2026-04-30 21:49 | 42.47482 | 27.62091 | 29928 ft | 447 kts | 322° |
| 2026-04-30 21:49 | 42.50211 | 27.60076 | 30362 ft | 445 kts | 321° |
| 2026-04-30 21:49 | 42.52926 | 27.58071 | 30699 ft | 444 kts | 321° |
| 2026-04-30 21:50 | 42.55637 | 27.56068 | 30992 ft | 444 kts | 321° |
| 2026-04-30 21:50 | 42.58345 | 27.54057 | 31272 ft | 442 kts | 320° |
| 2026-04-30 21:50 | 42.60911 | 27.51832 | 31581 ft | 434 kts | 315° |
| 2026-04-30 21:50 | 42.63359 | 27.49452 | 31909 ft | 431 kts | 314° |
| 2026-04-30 21:51 | 42.65773 | 27.47035 | 32206 ft | 430 kts | 314° |
| 2026-04-30 21:51 | 42.68180 | 27.44610 | 32483 ft | 430 kts | 314° |
| 2026-04-30 21:51 | 42.70588 | 27.42197 | 32799 ft | 429 kts | 315° |
| 2026-04-30 21:51 | 42.72996 | 27.39801 | 33109 ft | 428 kts | 315° |
| 2026-04-30 21:52 | 42.74624 | 27.38189 | 33301 ft | 428 kts | 315° |
| 2026-04-30 21:52 | 42.77000 | 27.35842 | 33567 ft | 428 kts | 316° |
| 2026-04-30 21:52 | 42.79409 | 27.33464 | 33823 ft | 428 kts | 316° |
| 2026-04-30 21:52 | 42.81818 | 27.31088 | 34125 ft | 427 kts | 316° |
| 2026-04-30 21:53 | 42.84223 | 27.28713 | 34247 ft | 429 kts | 316° |
| 2026-04-30 21:53 | 42.86644 | 27.26318 | 34260 ft | 430 kts | 316° |
| 2026-04-30 21:53 | 42.91469 | 27.21543 | 34261 ft | 427 kts | 316° |
| 2026-04-30 21:54 | 42.96262 | 27.16790 | 34265 ft | 425 kts | 316° |
| 2026-04-30 21:54 | 43.01063 | 27.12012 | 34450 ft | 429 kts | 316° |
| 2026-04-30 21:55 | 43.03475 | 27.09610 | 34659 ft | 429 kts | 316° |
| 2026-04-30 21:55 | 43.05884 | 27.07210 | 34851 ft | 429 kts | 317° |
| 2026-04-30 21:55 | 43.08300 | 27.04801 | 34989 ft | 430 kts | 317° |
| 2026-04-30 21:55 | 43.10726 | 27.02390 | 35145 ft | 432 kts | 318° |
| 2026-04-30 21:56 | 43.13209 | 27.00060 | 35321 ft | 434 kts | 320° |
| 2026-04-30 21:56 | 43.15733 | 26.97783 | 35491 ft | 435 kts | 320° |
| 2026-04-30 21:56 | 43.18269 | 26.95522 | 35667 ft | 435 kts | 320° |
| 2026-04-30 21:56 | 43.20806 | 26.93257 | 35825 ft | 436 kts | 321° |
| 2026-04-30 21:57 | 43.23346 | 26.90977 | 35988 ft | 436 kts | 321° |
| 2026-04-30 21:57 | 43.25877 | 26.88689 | 36167 ft | 436 kts | 321° |
| 2026-04-30 21:57 | 43.28407 | 26.86392 | 36282 ft | 436 kts | 321° |
| 2026-04-30 21:57 | 43.30949 | 26.84074 | 36291 ft | 439 kts | 321° |
| 2026-04-30 21:58 | 43.36037 | 26.79420 | 36298 ft | 439 kts | 321° |
| 2026-04-30 21:58 | 43.41076 | 26.74804 | 36307 ft | 438 kts | 321° |
| 2026-04-30 21:59 | 43.46141 | 26.70154 | 36302 ft | 437 kts | 321° |
| 2026-04-30 22:00 | 43.53723 | 26.63175 | 36308 ft | 437 kts | 321° |
| 2026-04-30 22:00 | 43.61296 | 26.56183 | 36315 ft | 436 kts | 321° |
| 2026-04-30 22:01 | 43.66340 | 26.51513 | 36313 ft | 437 kts | 321° |
| 2026-04-30 22:01 | 43.71393 | 26.46826 | 36314 ft | 438 kts | 321° |
| 2026-04-30 22:02 | 43.76414 | 26.42159 | 36323 ft | 438 kts | 322° |
| 2026-04-30 22:02 | 43.81479 | 26.37441 | 36315 ft | 439 kts | 322° |
| 2026-04-30 22:03 | 43.86548 | 26.32710 | 36310 ft | 440 kts | 322° |
| 2026-04-30 22:03 | 43.91619 | 26.27966 | 36319 ft | 440 kts | 322° |
| 2026-04-30 22:04 | 43.96696 | 26.23208 | 36312 ft | 440 kts | 322° |
| 2026-04-30 22:05 | 44.04337 | 26.16156 | 36320 ft | 440 kts | 323° |
| 2026-04-30 22:05 | 44.09454 | 26.11503 | 36318 ft | 439 kts | 323° |
| 2026-04-30 22:06 | 44.14566 | 26.06836 | 36323 ft | 439 kts | 323° |
| 2026-04-30 22:06 | 44.22218 | 25.99813 | 36322 ft | 439 kts | 323° |
| 2026-04-30 22:07 | 44.27313 | 25.95120 | 36325 ft | 439 kts | 323° |
| 2026-04-30 22:07 | 44.32403 | 25.90423 | 36321 ft | 439 kts | 323° |
| 2026-04-30 22:08 | 44.37492 | 25.85716 | 36329 ft | 438 kts | 323° |
| 2026-04-30 22:08 | 44.42582 | 25.80999 | 36325 ft | 438 kts | 323° |
| 2026-04-30 22:09 | 44.47660 | 25.76282 | 36330 ft | 438 kts | 323° |
| 2026-04-30 22:09 | 44.52735 | 25.71558 | 36340 ft | 438 kts | 323° |
| 2026-04-30 22:10 | 44.57767 | 25.66865 | 36341 ft | 437 kts | 323° |
| 2026-04-30 22:10 | 44.62865 | 25.62100 | 36337 ft | 437 kts | 323° |
| 2026-04-30 22:11 | 44.70421 | 25.55018 | 36338 ft | 437 kts | 323° |
| 2026-04-30 22:12 | 44.75479 | 25.50266 | 36344 ft | 437 kts | 323° |
| 2026-04-30 22:12 | 44.80534 | 25.45505 | 36345 ft | 437 kts | 323° |
| 2026-04-30 22:13 | 44.85591 | 25.40732 | 36353 ft | 437 kts | 323° |
| 2026-04-30 22:13 | 44.90646 | 25.35952 | 36354 ft | 438 kts | 323° |
| 2026-04-30 22:14 | 44.95701 | 25.31161 | 36359 ft | 438 kts | 323° |
| 2026-04-30 22:14 | 45.00755 | 25.26359 | 36356 ft | 438 kts | 323° |
| 2026-04-30 22:15 | 45.05812 | 25.21546 | 36366 ft | 438 kts | 323° |
| 2026-04-30 22:15 | 45.10863 | 25.16727 | 36366 ft | 438 kts | 323° |
| 2026-04-30 22:16 | 45.15923 | 25.11890 | 36369 ft | 438 kts | 323° |
| 2026-04-30 22:17 | 45.25984 | 25.02240 | 36376 ft | 437 kts | 323° |
| 2026-04-30 22:17 | 45.33536 | 24.94969 | 36368 ft | 436 kts | 323° |
| 2026-04-30 22:18 | 45.41055 | 24.87706 | 36374 ft | 435 kts | 323° |
| 2026-04-30 22:19 | 45.48549 | 24.80443 | 36375 ft | 434 kts | 323° |
| 2026-04-30 22:20 | 45.56022 | 24.73176 | 36383 ft | 433 kts | 323° |
| 2026-04-30 22:20 | 45.63488 | 24.65893 | 36382 ft | 433 kts | 323° |
| 2026-04-30 22:21 | 45.68453 | 24.61036 | 36365 ft | 433 kts | 323° |
| 2026-04-30 22:21 | 45.73418 | 24.56169 | 36355 ft | 432 kts | 323° |
| 2026-04-30 22:22 | 45.78342 | 24.51331 | 36353 ft | 432 kts | 323° |
| 2026-04-30 22:22 | 45.83293 | 24.46456 | 36345 ft | 432 kts | 323° |
| 2026-04-30 22:23 | 45.88239 | 24.41575 | 36350 ft | 432 kts | 323° |
| 2026-04-30 22:23 | 45.93184 | 24.36684 | 36346 ft | 432 kts | 323° |
| 2026-04-30 22:24 | 45.98133 | 24.31779 | 36347 ft | 432 kts | 323° |
| 2026-04-30 22:24 | 46.03089 | 24.26856 | 36349 ft | 433 kts | 323° |
| 2026-04-30 22:25 | 46.08049 | 24.21918 | 36362 ft | 434 kts | 323° |
| 2026-04-30 22:25 | 46.13013 | 24.16964 | 36358 ft | 435 kts | 323° |
| 2026-04-30 22:26 | 46.20477 | 24.09496 | 36372 ft | 436 kts | 324° |
| 2026-04-30 22:27 | 46.25462 | 24.04494 | 36355 ft | 436 kts | 324° |
| 2026-04-30 22:27 | 46.32946 | 23.96964 | 36356 ft | 437 kts | 324° |
| 2026-04-30 22:28 | 46.40433 | 23.89404 | 36368 ft | 438 kts | 324° |
| 2026-04-30 22:29 | 46.50386 | 23.79316 | 36354 ft | 438 kts | 324° |
| 2026-04-30 22:31 | 46.67845 | 23.61506 | 36337 ft | 438 kts | 324° |
| 2026-04-30 22:32 | 46.80297 | 23.48716 | 36333 ft | 438 kts | 324° |
| 2026-04-30 22:33 | 46.92733 | 23.35868 | 36351 ft | 437 kts | 324° |
| 2026-04-30 22:35 | 47.05104 | 23.23014 | 36363 ft | 437 kts | 324° |
| 2026-04-30 22:36 | 47.17479 | 23.10080 | 36362 ft | 436 kts | 324° |
| 2026-04-30 22:37 | 47.27360 | 22.99698 | 36357 ft | 436 kts | 324° |
| 2026-04-30 22:38 | 47.37230 | 22.89279 | 36355 ft | 436 kts | 323° |
| 2026-04-30 22:39 | 47.44629 | 22.81436 | 36353 ft | 436 kts | 323° |
| 2026-04-30 22:40 | 47.58585 | 22.66567 | 36349 ft | 437 kts | 323° |
| 2026-04-30 22:41 | 47.71696 | 22.52506 | 36352 ft | 437 kts | 323° |
| 2026-04-30 22:43 | 47.85952 | 22.38198 | 36352 ft | 437 kts | 329° |
| 2026-04-30 22:44 | 47.96412 | 22.28919 | 36351 ft | 437 kts | 328° |
| 2026-04-30 22:45 | 48.12047 | 22.14769 | 36360 ft | 438 kts | 328° |
| 2026-04-30 22:47 | 48.27662 | 22.00530 | 36347 ft | 439 kts | 329° |
| 2026-04-30 22:48 | 48.38519 | 21.92251 | 36347 ft | 440 kts | 345° |
| 2026-04-30 22:49 | 48.56730 | 21.88403 | 36356 ft | 441 kts | 351° |
| 2026-04-30 22:51 | 48.74972 | 21.84561 | 36354 ft | 441 kts | 351° |
| 2026-04-30 22:52 | 48.84094 | 21.82628 | 36361 ft | 441 kts | 351° |
| 2026-04-30 22:53 | 48.96293 | 21.82976 | 36357 ft | 443 kts | 8° |
| 2026-04-30 22:53 | 49.02400 | 21.84522 | 35865 ft | 443 kts | 8° |
| 2026-04-30 22:53 | 49.05431 | 21.85273 | 35842 ft | 438 kts | 8° |
| 2026-04-30 22:54 | 49.11383 | 21.86709 | 35993 ft | 440 kts | 8° |
| 2026-04-30 22:55 | 49.20503 | 21.88879 | 36265 ft | 443 kts | 8° |
| 2026-04-30 22:55 | 49.26591 | 21.90334 | 36686 ft | 441 kts | 8° |
| 2026-04-30 22:56 | 49.32637 | 21.91783 | 37093 ft | 440 kts | 8° |
| 2026-04-30 22:56 | 49.41690 | 21.94276 | 37377 ft | 442 kts | 11° |
| 2026-04-30 22:57 | 49.47713 | 21.96232 | 37376 ft | 442 kts | 11° |
| 2026-04-30 22:58 | 49.59713 | 22.00071 | 37377 ft | 439 kts | 11° |
| 2026-04-30 22:59 | 49.77620 | 22.05725 | 37386 ft | 437 kts | 11° |